BRLK1: Neosho River, Burlington, KS

Data processed at Wed May 22 2019 23:30


All information presented herein is the property of the government of the United States of America and may be revised or deleted at any time without prior notice.
Dissemination of this information without the expressed written consent of the Public Affairs Office, Tulsa District U.S. Army Corps of Engineers is strictly prohibited.
These data are gathered electronically and, as presented, have not undergone any form of quality control. These data are not guaranteed to be valid or correct.
Go to home page.
Go to station list.
Go to home page.

Upstream stations:

Downstream station:
Previous Day
Next Day
Current Day
    
SHEF ID:       BRLK1     Neosho River, Burlington, KS
STATION TYPE:  
Regulating: Stage =    23.00, Flow =    16777

               PRECIP     STAGE  RIV-FLOW  BAT-LOAD
                   in        ft       cfs      volt
              Ccp-Rev   Ccp-Rev   Ccp-Rev   Ccp-Rev
(US/Central)
05/22 00:00      0.00     25.39     18987     12.65
05/22 01:00      0.00     26.09     19624     12.60
05/22 02:00      0.00     26.58     20068     12.60
05/22 03:00      0.00     26.82     20284     12.60
05/22 04:00      0.00     27.09     20527     12.60
05/22 05:00      0.00     27.37     20779     12.60
05/22 06:00      0.00     27.60     20985     12.54
05/22 07:00      0.00     27.71     21083     12.54
05/22 08:00      0.00     27.85     21208     12.60
05/22 09:00      0.00     28.01     21351     12.83
05/22 10:00      0.00     28.42     21716     13.07
05/22 11:00      0.00     28.81     22062     13.24
05/22 12:00      0.00     29.24     22443     13.30
05/22 13:00      0.03     29.41     22593     13.36
05/22 14:00      0.02     29.74     22947     13.30
05/22 15:00      0.24     29.98     23287     13.00
05/22 16:00      0.07     30.12     23485     12.89
05/22 17:00      0.00     30.23     23641     12.89
05/22 18:00      0.00     30.38     23855     12.95
05/22 19:00      0.00     30.52     24089     12.89
05/22 20:00      0.00     30.59     24268     12.83
05/22 21:00      0.00     30.59     24268     12.83
05/22 22:00      0.00     30.72     24603     12.77
05/22 23:00      0.00     30.72     24603     12.77